Time;durP1;ratioP1;P1;durP2;ratioP2;P2;SDS_P1;SDS_P2;PMS_P1;PMS_P2;Temp;Humidity;BMP_temperature;BMP_pressure;BME280_temperature;BME280_humidity;BME280_pressure;Samples;Min_cycle;Max_cycle;Signal;HPM_P1;HPM_P2
2021/06/05 00:00:54;;;;;;;7.18;3.33;;;;;;;15.97;100.00;100714.50;2051764;28;20069;-80
2021/06/05 00:01:56;;;;;;;5.07;3.30;;;;;;;15.95;100.00;100710.25;2050966;28;20038;-80
2021/06/05 00:02:56;;;;;;;;;;;;;;;15.89;100.00;100711.38;2055714;28;20082;-80
2021/06/05 00:03:58;;;;;;;6.03;3.50;;;;;;;15.86;100.00;100708.91;2056034;28;19921;-80
2021/06/05 00:04:59;;;;;;;7.50;3.83;;;;;;;15.84;100.00;100708.94;2049519;28;20019;-80
2021/06/05 00:06:00;;;;;;;;;;;;;;;15.80;100.00;100698.59;2052185;28;20030;-80
2021/06/05 00:07:00;;;;;;;6.15;3.70;;;;;;;15.78;100.00;100698.69;2055624;28;20412;-79
2021/06/05 00:08:01;;;;;;;10.83;3.50;;;;;;;15.81;100.00;100702.94;2055802;28;20033;-79
2021/06/05 00:09:04;;;;;;;6.77;3.50;;;;;;;15.77;100.00;100702.22;2051357;28;20222;-79
2021/06/05 00:10:12;;;;;;;5.60;3.60;;;;;;;15.75;100.00;100704.06;2057904;28;20342;-79
2021/06/05 00:11:14;;;;;;;8.07;3.65;;;;;;;15.76;100.00;100704.94;2058812;28;20109;-79
2021/06/05 00:12:18;;;;;;;4.15;3.45;;;;;;;15.75;100.00;100698.81;2049325;28;20027;-79
2021/06/05 00:13:22;;;;;;;5.70;3.95;;;;;;;15.74;100.00;100702.34;2050482;28;20094;-79
2021/06/05 00:14:23;;;;;;;7.10;3.88;;;;;;;15.77;100.00;100701.41;2049775;28;20054;-79
2021/06/05 00:15:30;;;;;;;9.90;4.20;;;;;;;15.78;100.00;100701.31;2050599;28;20690;-79
2021/06/05 00:16:37;;;;;;;10.10;3.88;;;;;;;15.74;100.00;100702.34;2053779;28;20019;-79
2021/06/05 00:17:37;;;;;;;4.68;3.90;;;;;;;15.72;100.00;100698.97;2050063;28;20027;-79
2021/06/05 00:18:38;;;;;;;5.53;3.67;;;;;;;15.68;100.00;100697.38;2051559;28;20030;-79
2021/06/05 00:19:38;;;;;;;8.07;4.40;;;;;;;15.68;100.00;100694.75;2051001;28;20050;-79
2021/06/05 00:20:39;;;;;;;6.57;4.30;;;;;;;15.66;100.00;100704.47;2058545;28;20038;-79
2021/06/05 00:21:40;;;;;;;6.80;4.20;;;;;;;15.66;100.00;100701.84;2060718;28;20034;-79
2021/06/05 00:22:41;;;;;;;;;;;;;;;15.63;100.00;100700.22;2050976;28;20035;-79
2021/06/05 00:23:41;;;;;;;8.43;4.72;;;;;;;15.61;100.00;100709.09;2052341;28;19964;-79
2021/06/05 00:24:43;;;;;;;11.47;5.00;;;;;;;15.60;100.00;100705.59;2049952;28;20027;-80
2021/06/05 00:25:44;;;;;;;7.80;4.50;;;;;;;15.61;100.00;100716.97;2054682;28;20089;-80
2021/06/05 00:26:45;;;;;;;;;;;;;;;15.57;100.00;100706.56;2053347;28;20062;-81
2021/06/05 00:27:45;;;;;;;10.27;7.75;;;;;;;15.59;100.00;100713.53;2050811;28;19937;-80
2021/06/05 00:28:46;;;;;;;9.20;7.00;;;;;;;15.59;100.00;100710.91;2052805;28;20066;-80
2021/06/05 00:29:46;;;;;;;7.27;6.00;;;;;;;15.56;100.00;100714.53;2052171;28;20067;-80
2021/06/05 00:30:47;;;;;;;6.70;4.60;;;;;;;15.55;100.00;100703.16;2054667;28;20490;-79
2021/06/05 00:31:48;;;;;;;6.90;5.07;;;;;;;15.60;100.00;100710.00;2052906;28;20034;-79
2021/06/05 00:32:48;;;;;;;8.45;5.60;;;;;;;15.60;100.00;100699.50;2051198;28;20676;-80
2021/06/05 00:33:49;;;;;;;10.57;4.70;;;;;;;15.61;100.00;100695.94;2051735;28;20086;-80
2021/06/05 00:34:49;;;;;;;6.37;4.10;;;;;;;15.60;100.00;100694.25;2060846;28;20352;-81
2021/06/05 00:35:50;;;;;;;6.40;3.83;;;;;;;15.60;100.00;100694.25;2059913;28;20042;-80
2021/06/05 00:36:50;;;;;;;7.18;4.90;;;;;;;15.61;100.00;100698.56;2051283;28;20042;-81
2021/06/05 00:37:50;;;;;;;4.90;4.40;;;;;;;15.56;100.00;100691.72;2050148;28;20050;-80
2021/06/05 00:38:53;;;;;;;7.67;4.40;;;;;;;15.56;100.00;100694.34;2051388;28;20023;-80
2021/06/05 00:39:54;;;;;;;5.47;4.05;;;;;;;15.55;100.00;100695.28;2051077;28;20038;-81
2021/06/05 00:40:57;;;;;;;10.00;4.70;;;;;;;15.60;100.00;100700.34;2050735;28;20039;-81
2021/06/05 00:41:57;;;;;;;8.35;4.60;;;;;;;15.63;100.00;100704.59;2050222;28;20022;-80
2021/06/05 00:42:59;;;;;;;9.13;4.63;;;;;;;15.64;100.00;100701.03;2050650;28;20023;-81
2021/06/05 00:44:04;;;;;;;7.20;4.30;;;;;;;15.70;100.00;100700.81;2054015;28;20030;-80
2021/06/05 00:45:09;;;;;;;7.05;4.10;;;;;;;15.68;100.00;100697.38;2052054;28;20034;-80
2021/06/05 00:46:14;;;;;;;10.73;4.35;;;;;;;15.68;100.00;100700.00;2051233;28;20565;-80
2021/06/05 00:47:14;;;;;;;6.63;3.63;;;;;;;15.67;100.00;100698.28;2053494;28;20022;-81
2021/06/05 00:48:16;;;;;;;7.50;3.97;;;;;;;15.69;100.00;100699.09;2051760;28;20023;-80
2021/06/05 00:49:16;;;;;;;5.50;4.00;;;;;;;15.68;100.00;100703.47;2058911;28;20026;-80
2021/06/05 00:50:17;;;;;;;4.20;3.80;;;;;;;15.66;100.00;100704.47;2057813;28;20046;-80
2021/06/05 00:51:23;;;;;;;7.57;3.90;;;;;;;15.65;100.00;100698.38;2050788;28;20066;-80
2021/06/05 00:52:26;;;;;;;7.20;3.83;;;;;;;15.69;100.00;100705.19;2052643;28;20031;-80
2021/06/05 00:53:28;;;;;;;5.70;4.28;;;;;;;15.70;100.00;100706.06;2050334;28;20074;-80
2021/06/05 00:54:29;;;;;;;5.43;3.80;;;;;;;15.75;100.00;100709.31;2051547;28;20035;-81
2021/06/05 00:55:34;;;;;;;11.20;3.67;;;;;;;15.68;100.00;100703.47;2051921;28;20041;-80
2021/06/05 00:56:34;;;;;;;8.23;3.80;;;;;;;15.70;100.00;100706.06;2050689;28;20409;-80
2021/06/05 00:57:35;;;;;;;6.05;3.80;;;;;;;15.70;100.00;100706.06;2054148;28;20027;-81
2021/06/05 00:58:36;;;;;;;6.37;3.87;;;;;;;15.66;100.00;100705.34;2055391;28;20437;-81
2021/06/05 00:59:36;;;;;;;4.55;3.65;;;;;;;15.62;100.00;100708.16;2054479;28;20029;-81
2021/06/05 01:00:51;;;;;;;4.67;3.43;;;;;;;15.67;100.00;100709.69;2049129;28;20575;-80
2021/06/05 01:01:52;;;;;;;8.07;4.10;;;;;;;15.74;100.00;100707.63;2051643;28;20034;-81
2021/06/05 01:02:56;;;;;;;6.78;4.05;;;;;;;15.69;100.00;100710.44;2052121;28;20158;-80
2021/06/05 01:04:00;;;;;;;9.10;4.00;;;;;;;15.68;100.00;100713.97;2053558;28;20035;-81
2021/06/05 01:05:00;;;;;;;7.28;4.18;;;;;;;15.69;100.00;100714.84;2050542;28;20371;-81
2021/06/05 01:06:08;;;;;;;7.78;4.15;;;;;;;15.68;100.00;100713.97;2050313;28;20033;-80
2021/06/05 01:07:30;;;;;;;6.07;4.10;;;;;;;15.70;100.00;100712.16;2050452;28;20038;-80
2021/06/05 01:08:46;;;;;;;5.20;3.60;;;;;;;15.69;100.00;100706.97;2051764;28;20046;-80
2021/06/05 01:09:58;;;;;;;5.10;3.60;;;;;;;15.75;100.00;100706.69;2051297;28;20509;-80
2021/06/05 01:11:08;;;;;;;6.45;3.50;;;;;;;15.75;100.00;100701.44;2050014;28;20030;-80
2021/06/05 01:12:11;;;;;;;5.88;3.70;;;;;;;15.81;100.00;100708.19;2050511;28;20027;-80
2021/06/05 01:13:21;;;;;;;5.82;3.83;;;;;;;15.87;100.00;100702.72;2050305;28;20055;-80
2021/06/05 01:14:35;;;;;;;6.25;3.95;;;;;;;15.87;100.00;100710.59;2051730;28;20050;-80
2021/06/05 01:15:44;;;;;;;6.57;3.80;;;;;;;15.96;100.00;100704.06;2050584;28;20026;-81
2021/06/05 01:16:48;;;;;;;7.13;4.00;;;;;;;16.02;100.00;100709.03;2050660;28;20031;-81
2021/06/05 01:17:54;;;;;;;4.18;3.30;;;;;;;16.14;100.00;100705.88;2048707;28;20126;-81
2021/06/05 01:19:08;;;;;;;6.07;3.33;;;;;;;16.13;99.78;100700.69;2049476;28;20031;-81
2021/06/05 01:20:14;;;;;;;5.60;3.38;;;;;;;16.16;99.67;100704.03;2050800;28;20430;-81
2021/06/05 01:21:55;;;;;;;7.47;3.42;;;;;;;16.15;99.82;100702.31;2051595;28;20045;-80
2021/06/05 01:23:14;;;;;;;6.63;3.53;;;;;;;16.19;99.40;100697.78;2050029;28;20788;-81
2021/06/05 01:24:56;;;;;;;5.43;3.47;;;;;;;16.22;98.86;100696.75;2049971;28;20043;-81
2021/06/05 01:26:11;;;;;;;6.47;3.00;;;;;;;16.27;97.82;100702.69;2054214;28;20035;-81
2021/06/05 01:27:26;;;;;;;7.47;3.22;;;;;;;16.28;97.37;100699.97;2053493;28;20109;-81
2021/06/05 01:28:34;;;;;;;4.75;3.00;;;;;;;16.28;97.47;100697.34;2052371;28;20049;-81
2021/06/05 01:29:37;;;;;;;5.80;2.90;;;;;;;16.30;96.94;100695.50;2059722;28;20135;-81
2021/06/05 01:30:44;;;;;;;5.68;2.70;;;;;;;16.30;96.54;100698.13;2057328;28;20054;-82
2021/06/05 01:31:53;;;;;;;5.55;2.53;;;;;;;16.45;94.79;100693.09;2050105;28;20074;-81
2021/06/05 01:32:57;;;;;;;4.20;2.33;;;;;;;16.43;94.82;100695.78;2050225;28;20113;-81
2021/06/05 01:33:58;;;;;;;3.78;2.53;;;;;;;16.46;94.25;100695.66;2048615;28;20117;-81
2021/06/05 01:34:59;;;;;;;;;;;;;;;16.44;94.75;100697.50;2051168;28;20042;-82
2021/06/05 01:36:00;;;;;;;4.57;2.30;;;;;;;16.44;94.25;100692.22;2050339;28;19924;-82
2021/06/05 01:37:02;;;;;;;7.38;2.45;;;;;;;16.54;93.43;100694.41;2048974;28;20505;-82
2021/06/05 01:38:03;;;;;;;5.80;2.53;;;;;;;16.61;92.93;100695.81;2049611;28;20478;-81
2021/06/05 01:39:07;;;;;;;4.15;2.38;;;;;;;16.57;93.04;100691.66;2050163;28;20035;-82
2021/06/05 01:40:11;;;;;;;4.53;2.20;;;;;;;16.57;93.16;100694.28;2051317;28;20034;-81
2021/06/05 01:41:14;;;;;;;4.28;2.25;;;;;;;16.61;92.82;100694.06;2049921;28;20069;-81
2021/06/05 01:42:23;;;;;;;7.95;2.30;;;;;;;16.65;92.41;100689.50;2052537;28;20041;-82
2021/06/05 01:43:27;;;;;;;4.10;2.53;;;;;;;16.69;91.74;100692.84;2050146;28;20410;-81
2021/06/05 01:44:32;;;;;;;3.42;2.58;;;;;;;16.75;91.62;100690.78;2047888;28;20015;-82
2021/06/05 01:45:36;;;;;;;5.00;3.33;;;;;;;16.68;92.33;100688.50;2061521;28;20026;-82
2021/06/05 01:46:41;;;;;;;4.88;2.72;;;;;;;16.61;92.11;100691.44;2055735;28;20085;-82
2021/06/05 01:47:41;;;;;;;3.42;2.13;;;;;;;16.60;92.30;100689.72;2056009;28;20604;-82
2021/06/05 01:48:41;;;;;;;4.80;2.50;;;;;;;16.63;92.04;100686.97;2056046;28;20030;-80
2021/06/05 01:49:43;;;;;;;4.13;2.20;;;;;;;16.60;92.15;100686.25;2055994;28;20121;-82
2021/06/05 01:50:44;;;;;;;3.05;2.28;;;;;;;16.68;91.62;100684.09;2055933;28;20027;-81
2021/06/05 01:51:59;;;;;;;4.78;2.60;;;;;;;16.63;91.55;100680.81;2055659;28;20027;-82
2021/06/05 01:53:09;;;;;;;4.43;1.90;;;;;;;16.60;91.63;100681.81;2056182;28;20030;-81
2021/06/05 01:54:18;;;;;;;5.30;2.33;;;;;;;16.57;91.97;100681.97;2053745;28;20112;-82
2021/06/05 01:55:34;;;;;;;3.10;1.90;;;;;;;16.61;92.19;100690.56;2049137;28;20392;-83
2021/06/05 01:56:41;;;;;;;4.25;2.15;;;;;;;16.65;91.88;100684.25;2047866;29;20734;-83
2021/06/05 01:57:48;;;;;;;4.10;2.20;;;;;;;16.61;92.22;100682.66;2051783;28;20042;-83
2021/06/05 01:58:50;;;;;;;3.72;2.10;;;;;;;16.63;91.87;100680.81;2056354;28;20077;-83
2021/06/05 01:59:51;;;;;;;3.35;1.90;;;;;;;16.67;91.84;100673.63;2056831;28;20105;-84
2021/06/05 02:00:54;;;;;;;4.82;2.13;;;;;;;16.70;90.73;100678.75;2054029;28;20027;-83
2021/06/05 02:01:54;;;;;;;7.00;2.00;;;;;;;16.74;90.38;100673.25;2052568;28;20393;-83
2021/06/05 02:02:55;;;;;;;6.00;1.90;;;;;;;16.75;90.30;100672.34;2052857;28;20031;-83
2021/06/05 02:03:55;;;;;;;3.67;1.88;;;;;;;16.80;89.71;100672.97;2055566;28;20046;-83
2021/06/05 02:04:55;;;;;;;3.87;1.80;;;;;;;16.83;89.00;100671.09;2055531;28;20710;-83
2021/06/05 02:05:56;;;;;;;4.40;2.10;;;;;;;16.82;89.08;100670.28;2055887;28;20031;-84
2021/06/05 02:06:57;;;;;;;2.30;1.73;;;;;;;16.81;89.31;100674.66;2055859;28;20091;-82
2021/06/05 02:07:57;;;;;;;4.85;1.90;;;;;;;16.78;89.93;100669.56;2055731;28;20027;-82
2021/06/05 02:09:01;;;;;;;6.70;2.17;;;;;;;16.83;89.90;100665.84;2055157;28;20508;-82
2021/06/05 02:10:07;;;;;;;8.43;1.83;;;;;;;16.78;90.07;100664.31;2055677;28;20549;-82
2021/06/05 02:11:12;;;;;;;4.95;1.98;;;;;;;16.77;89.75;100670.50;2056082;28;20034;-82
2021/06/05 02:12:20;;;;;;;4.82;1.90;;;;;;;16.78;89.91;100663.44;2055767;28;20023;-83
2021/06/05 02:13:30;;;;;;;6.03;1.80;;;;;;;16.73;90.52;100670.72;2055001;28;20026;-82
2021/06/05 02:14:50;;;;;;;5.10;1.90;;;;;;;16.73;90.44;100657.56;2052960;28;20031;-83
2021/06/05 02:15:57;;;;;;;7.07;2.00;;;;;;;16.74;90.15;100654.00;2063048;28;20037;-83
2021/06/05 02:16:59;;;;;;;3.58;2.00;;;;;;;16.83;90.01;100657.94;2062763;28;20033;-83
2021/06/05 02:18:03;;;;;;;3.05;1.70;;;;;;;16.78;89.88;100656.41;2055037;28;20031;-83
2021/06/05 02:19:12;;;;;;;2.60;1.80;;;;;;;16.83;89.95;100656.19;2055365;28;20106;-83
2021/06/05 02:20:19;;;;;;;2.88;1.70;;;;;;;16.78;90.16;100656.41;2060833;28;20489;-84
2021/06/05 02:21:23;;;;;;;2.63;1.70;;;;;;;16.81;89.83;100656.25;2055820;28;20026;-84
2021/06/05 02:22:26;;;;;;;3.70;1.88;;;;;;;16.80;89.67;100651.91;2055444;28;20022;-83
2021/06/05 02:24:01;;;;;;;4.30;2.08;;;;;;;16.76;90.04;100655.63;2055661;28;20065;-82
2021/06/05 02:25:05;;;;;;;3.35;1.88;;;;;;;16.76;90.35;100652.13;2048308;28;20451;-83
2021/06/05 02:26:05;;;;;;;8.85;1.90;;;;;;;16.73;89.96;100658.41;2055091;28;20061;-83
2021/06/05 02:27:06;;;;;;;3.57;2.00;;;;;;;16.73;90.08;100654.94;2055976;28;20037;-83
2021/06/05 02:28:08;;;;;;;4.47;1.88;;;;;;;16.75;90.12;100653.09;2055837;28;20269;-84
2021/06/05 02:29:11;;;;;;;4.50;1.83;;;;;;;16.72;90.29;100654.06;2054896;28;20034;-83
2021/06/05 02:30:16;;;;;;;4.95;2.13;;;;;;;16.68;90.80;100654.28;2055473;28;20382;-83
2021/06/05 02:31:16;;;;;;;6.40;2.35;;;;;;;16.69;90.98;100656.88;2054281;28;20478;-84
2021/06/05 02:32:21;;;;;;;3.72;2.10;;;;;;;16.71;90.68;100649.72;2054627;28;20126;-84
2021/06/05 02:33:22;;;;;;;4.97;1.90;;;;;;;16.70;90.74;100655.94;2055055;28;20624;-83
2021/06/05 02:34:26;;;;;;;4.43;1.88;;;;;;;16.67;91.02;100660.47;2055319;28;20046;-83
2021/06/05 02:35:35;;;;;;;3.45;1.92;;;;;;;16.74;90.62;100660.09;2055767;28;20958;-83
2021/06/05 02:36:44;;;;;;;8.88;2.15;;;;;;;16.70;90.43;100658.56;2052699;28;20122;-83
2021/06/05 02:37:46;;;;;;;3.80;2.10;;;;;;;16.71;90.57;100657.63;2048898;28;20126;-83
2021/06/05 02:38:49;;;;;;;3.30;1.90;;;;;;;16.67;90.78;100660.47;2047111;28;20548;-84
2021/06/05 02:39:57;;;;;;;5.32;2.00;;;;;;;16.68;90.96;100665.69;2056226;28;20065;-82
2021/06/05 02:40:58;;;;;;;6.50;2.05;;;;;;;16.67;90.78;100653.44;2056009;28;20022;-83
2021/06/05 02:41:59;;;;;;;2.85;2.03;;;;;;;16.66;90.82;100657.00;2056269;28;20026;-82
2021/06/05 02:43:03;;;;;;;3.67;1.73;;;;;;;16.62;91.54;100664.19;2056644;28;20068;-82
2021/06/05 02:44:03;;;;;;;4.72;2.17;;;;;;;16.67;91.39;100661.34;2056678;28;20033;-83
2021/06/05 02:45:09;;;;;;;5.97;2.00;;;;;;;16.74;90.75;100656.63;2056646;28;20084;-83
2021/06/05 02:46:15;;;;;;;3.40;1.88;;;;;;;16.70;91.04;100655.06;2056237;28;20031;-83
2021/06/05 02:47:16;;;;;;;3.92;2.20;;;;;;;16.68;90.84;100655.16;2056258;28;20030;-82
2021/06/05 02:48:17;;;;;;;3.55;2.05;;;;;;;16.65;91.37;100657.94;2055929;28;20518;-83
2021/06/05 02:49:17;;;;;;;3.42;1.90;;;;;;;16.80;90.69;100656.31;2056099;28;20042;-83
2021/06/05 02:50:18;;;;;;;2.90;1.73;;;;;;;16.69;91.19;100651.59;2056738;28;20058;-83
2021/06/05 02:51:21;;;;;;;4.40;2.20;;;;;;;16.69;90.74;100656.00;2056660;28;20029;-83
2021/06/05 02:52:33;;;;;;;6.28;2.00;;;;;;;16.58;91.46;100654.72;2055807;28;20041;-82
2021/06/05 02:53:34;;;;;;;3.80;2.10;;;;;;;16.61;91.20;100651.97;2055999;28;20035;-80
2021/06/05 02:54:36;;;;;;;2.53;1.77;;;;;;;16.73;90.73;100657.56;2056714;28;20619;-80
2021/06/05 02:55:36;;;;;;;2.80;1.95;;;;;;;16.64;91.12;100657.09;2056494;28;20739;-80
2021/06/05 02:56:37;;;;;;;3.65;1.90;;;;;;;16.57;91.42;100660.06;2056618;28;20034;-80
2021/06/05 02:57:38;;;;;;;4.97;2.00;;;;;;;16.60;91.52;100667.84;2056393;28;20115;-80
2021/06/05 02:58:39;;;;;;;3.90;2.10;;;;;;;16.51;91.93;100665.66;2056363;28;20058;-80
2021/06/05 02:59:42;;;;;;;5.88;2.20;;;;;;;16.47;92.09;100665.78;2056589;28;20543;-80
2021/06/05 03:00:45;;;;;;;5.20;2.05;;;;;;;16.45;92.21;100661.53;2056537;28;20422;-80
2021/06/05 03:01:47;;;;;;;4.50;2.00;;;;;;;16.50;92.26;100664.78;2056402;28;20030;-81
2021/06/05 03:02:47;;;;;;;5.00;2.65;;;;;;;16.45;92.57;100661.53;2056550;28;20046;-80
2021/06/05 03:03:48;;;;;;;6.70;2.30;;;;;;;16.43;92.86;100666.00;2056573;28;20375;-80
2021/06/05 03:04:48;;;;;;;3.88;2.40;;;;;;;16.44;92.67;100663.28;2056475;28;20757;-80
2021/06/05 03:05:51;;;;;;;7.23;2.00;;;;;;;16.49;92.30;100666.56;2056449;28;20106;-80
2021/06/05 03:06:51;;;;;;;3.58;2.10;;;;;;;16.55;92.38;100662.78;2056237;28;20026;-80
2021/06/05 03:07:53;;;;;;;5.20;2.45;;;;;;;16.43;92.49;100666.84;2056430;28;20442;-80
2021/06/05 03:08:54;;;;;;;4.28;2.38;;;;;;;16.41;92.99;100666.06;2056434;28;20081;-80
2021/06/05 03:09:54;;;;;;;5.13;2.27;;;;;;;16.62;92.21;100664.19;2056403;28;20027;-80
2021/06/05 03:10:55;;;;;;;5.87;2.37;;;;;;;16.49;92.02;100660.44;2056491;28;20650;-80
2021/06/05 03:11:55;;;;;;;6.38;2.65;;;;;;;16.43;92.81;100664.22;2056161;28;20030;-80
2021/06/05 03:12:55;;;;;;;4.13;2.03;;;;;;;16.42;92.98;100667.75;2056312;28;20077;-80
2021/06/05 03:13:56;;;;;;;6.90;2.30;;;;;;;16.41;92.87;100675.75;2056308;28;20389;-80
2021/06/05 03:14:56;;;;;;;4.17;1.97;;;;;;;16.43;93.12;100669.47;2056450;28;20034;-80
2021/06/05 03:15:57;;;;;;;7.20;2.33;;;;;;;16.36;93.08;100670.69;2056339;28;20039;-80
2021/06/05 03:16:57;;;;;;;5.00;2.33;;;;;;;16.30;93.72;100669.19;2056258;28;20026;-80
2021/06/05 03:17:58;;;;;;;6.73;2.20;;;;;;;16.36;93.08;100673.31;2056335;28;20062;-80
2021/06/05 03:18:59;;;;;;;3.75;2.40;;;;;;;16.40;92.96;100669.63;2056354;28;20141;-80
2021/06/05 03:19:59;;;;;;;2.70;1.90;;;;;;;16.42;92.86;100673.03;2056483;28;20031;-80
2021/06/05 03:21:00;;;;;;;5.53;2.53;;;;;;;16.47;92.53;100664.91;2055458;28;20065;-81
2021/06/05 03:22:00;;;;;;;4.10;2.10;;;;;;;16.47;92.69;100664.91;2055738;28;20065;-80
2021/06/05 03:23:01;;;;;;;3.47;2.10;;;;;;;16.46;92.43;100671.09;2056285;28;20313;-80
2021/06/05 03:24:02;;;;;;;2.35;1.98;;;;;;;16.41;92.80;100670.47;2056443;28;20077;-80
2021/06/05 03:25:04;;;;;;;5.07;2.10;;;;;;;16.38;92.98;100674.09;2056243;28;20497;-80
2021/06/05 03:26:06;;;;;;;7.60;2.30;;;;;;;16.33;93.39;100669.06;2056312;28;20031;-80
2021/06/05 03:27:06;;;;;;;5.55;2.53;;;;;;;16.32;93.57;100663.84;2055035;28;20197;-80
2021/06/05 03:28:08;;;;;;;5.55;2.40;;;;;;;16.33;93.35;100662.94;2055223;28;20034;-80
2021/06/05 03:29:08;;;;;;;5.03;2.45;;;;;;;16.33;93.56;100668.19;2056371;28;20536;-80
2021/06/05 03:30:11;;;;;;;6.03;2.70;;;;;;;16.35;93.46;100668.97;2056460;28;20117;-80
2021/06/05 03:31:13;;;;;;;5.63;2.50;;;;;;;16.32;93.39;100661.22;2056322;28;20031;-80
2021/06/05 03:32:13;;;;;;;5.35;2.22;;;;;;;16.29;93.59;100661.41;2056270;28;20393;-80
2021/06/05 03:33:14;;;;;;;4.43;2.05;;;;;;;16.32;93.04;100662.09;2056182;28;20041;-80
2021/06/05 03:34:14;;;;;;;3.90;2.40;;;;;;;16.30;93.39;100665.72;2056357;28;20041;-81
2021/06/05 03:35:15;;;;;;;4.73;1.97;;;;;;;16.26;93.33;100664.16;2056386;28;20026;-81
2021/06/05 03:36:17;;;;;;;2.67;1.90;;;;;;;16.24;93.68;100668.63;2056440;28;20031;-80
2021/06/05 03:37:17;;;;;;;4.05;2.10;;;;;;;16.26;93.64;100662.38;2056129;28;20046;-80
2021/06/05 03:38:19;;;;;;;5.70;2.23;;;;;;;16.24;93.22;100668.63;2056459;28;20098;-81
2021/06/05 03:39:20;;;;;;;7.80;2.20;;;;;;;16.21;93.35;100669.63;2056380;28;20130;-80
2021/06/05 03:40:25;;;;;;;3.73;1.90;;;;;;;16.23;93.45;100661.66;2056483;28;20027;-80
2021/06/05 03:41:26;;;;;;;4.78;1.92;;;;;;;16.26;93.42;100666.78;2056423;28;20498;-80
2021/06/05 03:42:27;;;;;;;4.38;2.22;;;;;;;16.26;93.58;100667.63;2056182;28;20039;-80
2021/06/05 03:43:27;;;;;;;5.00;2.30;;;;;;;16.20;93.84;100661.81;2056161;28;20037;-81
2021/06/05 03:44:27;;;;;;;3.37;2.00;;;;;;;16.17;94.04;100662.78;2056137;28;20572;-80
2021/06/05 03:45:28;;;;;;;3.33;2.07;;;;;;;16.18;94.10;100669.75;2055681;28;20031;-81
2021/06/05 03:46:29;;;;;;;4.47;2.22;;;;;;;16.14;94.14;100665.59;2056555;28;20394;-81
2021/06/05 03:47:29;;;;;;;4.78;2.20;;;;;;;16.13;94.04;100662.09;2055915;28;20603;-81
2021/06/05 03:48:29;;;;;;;3.50;2.23;;;;;;;16.11;94.47;100666.59;2056353;28;20049;-80
2021/06/05 03:49:30;;;;;;;4.27;2.20;;;;;;;16.10;94.51;100664.00;2056456;28;20035;-80
2021/06/05 03:50:33;;;;;;;3.13;2.13;;;;;;;16.13;94.65;100663.88;2056452;28;20035;-80
2021/06/05 03:51:34;;;;;;;3.90;2.00;;;;;;;16.10;94.42;100662.25;2056340;28;20850;-81
2021/06/05 03:52:34;;;;;;;4.87;2.10;;;;;;;16.14;94.20;100658.53;2056420;28;20038;-80
2021/06/05 03:53:35;;;;;;;2.60;2.03;;;;;;;16.15;94.34;100660.25;2056430;28;20061;-80
2021/06/05 03:54:35;;;;;;;6.37;2.17;;;;;;;16.14;94.07;100661.16;2056526;28;20327;-80
2021/06/05 03:55:35;;;;;;;5.67;2.40;;;;;;;16.17;94.15;100663.66;2056340;28;20038;-81
2021/06/05 03:56:36;;;;;;;7.00;2.73;;;;;;;16.18;94.13;100654.84;2055823;28;20027;-81
2021/06/05 03:57:37;;;;;;;5.53;2.27;;;;;;;16.21;93.81;100658.28;2055630;28;20057;-80
2021/06/05 03:58:41;;;;;;;4.47;1.85;;;;;;;16.23;93.55;100661.66;2056315;28;20498;-80
2021/06/05 03:59:41;;;;;;;10.73;2.45;;;;;;;16.26;93.63;100658.91;2056477;28;20759;-80
2021/06/05 04:00:44;;;;;;;4.87;1.93;;;;;;;16.28;93.80;100659.69;2055953;28;20037;-80
2021/06/05 04:01:45;;;;;;;4.05;2.38;;;;;;;16.31;93.36;100659.56;2055232;28;20027;-80
2021/06/05 04:02:45;;;;;;;3.10;1.90;;;;;;;16.33;93.19;100655.91;2056337;28;20094;-81
2021/06/05 04:03:46;;;;;;;5.95;2.30;;;;;;;16.34;92.87;100660.25;2056142;28;20265;-81
2021/06/05 04:04:46;;;;;;;4.68;2.70;;;;;;;16.38;92.77;100660.09;2056417;28;20034;-81
2021/06/05 04:05:47;;;;;;;6.77;2.23;;;;;;;16.36;92.76;100657.53;2056473;28;20544;-80
2021/06/05 04:06:47;;;;;;;6.13;2.57;;;;;;;16.50;92.39;100659.50;2056121;28;20030;-80
2021/06/05 04:07:48;;;;;;;5.68;2.28;;;;;;;16.47;91.95;100657.88;2055874;28;20019;-80
2021/06/05 04:08:50;;;;;;;3.40;2.22;;;;;;;16.55;91.81;100661.94;2056035;28;20106;-80
2021/06/05 04:09:50;;;;;;;5.10;1.95;;;;;;;16.49;91.54;100658.69;2056665;28;20113;-80
2021/06/05 04:10:51;;;;;;;3.90;2.50;;;;;;;16.48;91.92;100666.63;2056379;28;20023;-80
2021/06/05 04:11:51;;;;;;;3.47;2.00;;;;;;;16.51;91.81;100661.22;2056360;28;20099;-81
2021/06/05 04:12:55;;;;;;;3.57;1.90;;;;;;;16.53;91.97;100658.50;2055899;28;20031;-81
2021/06/05 04:13:57;;;;;;;4.82;2.00;;;;;;;16.55;91.80;100661.94;2056360;28;20049;-81
2021/06/05 04:14:57;;;;;;;6.07;2.25;;;;;;;16.56;91.68;100658.38;2056351;28;20482;-80
2021/06/05 04:15:57;;;;;;;3.57;2.43;;;;;;;16.56;91.56;100664.47;2056407;28;20105;-80
2021/06/05 04:16:58;;;;;;;4.27;1.87;;;;;;;16.63;91.25;100660.63;2056558;28;20500;-80
2021/06/05 04:18:14;;;;;;;4.20;2.53;;;;;;;16.64;91.43;100667.63;2056514;28;20078;-80
2021/06/05 04:19:14;;;;;;;4.80;2.25;;;;;;;16.67;91.44;100661.34;2056415;28;20062;-80
2021/06/05 04:20:16;;;;;;;5.10;2.17;;;;;;;16.69;90.85;100664.75;2056343;28;20397;-81
2021/06/05 04:21:20;;;;;;;5.10;2.10;;;;;;;16.72;90.75;100661.13;2056341;28;20097;-80
2021/06/05 04:22:20;;;;;;;3.15;2.05;;;;;;;16.73;90.97;100663.66;2061080;28;20030;-80
2021/06/05 04:23:21;;;;;;;5.60;2.37;;;;;;;16.78;90.45;100663.44;2047472;29;20027;-81
2021/06/05 04:24:21;;;;;;;4.00;2.43;;;;;;;16.83;90.47;100664.09;2055297;28;20062;-80
2021/06/05 04:25:22;;;;;;;7.53;2.30;;;;;;;16.89;90.28;100662.94;2062925;28;20108;-80
2021/06/05 04:26:23;;;;;;;6.32;2.40;;;;;;;16.95;89.64;100668.75;2063128;28;20278;-80
2021/06/05 04:27:24;;;;;;;6.18;2.45;;;;;;;17.03;89.17;100668.38;2055604;28;20027;-80
2021/06/05 04:28:26;;;;;;;4.67;2.10;;;;;;;17.09;89.00;100668.09;2056066;28;20027;-80
2021/06/05 04:29:27;;;;;;;4.22;2.15;;;;;;;17.16;89.11;100670.41;2056147;28;20114;-80
2021/06/05 04:30:29;;;;;;;5.17;2.30;;;;;;;17.23;88.18;100672.66;2055968;28;20039;-80
2021/06/05 04:31:30;;;;;;;4.55;2.60;;;;;;;17.34;87.83;100676.53;2050053;28;20133;-80
2021/06/05 04:32:30;;;;;;;5.03;2.35;;;;;;;17.31;88.55;100671.41;2054556;28;20037;-80
2021/06/05 04:33:34;;;;;;;3.37;2.30;;;;;;;17.34;88.16;100674.75;2052431;28;20032;-80
2021/06/05 04:34:35;;;;;;;4.05;2.20;;;;;;;17.45;87.39;100674.19;2055318;28;20033;-80
2021/06/05 04:35:35;;;;;;;5.20;2.30;;;;;;;17.58;86.71;100675.25;2062779;28;20057;-80
2021/06/05 04:36:36;;;;;;;11.38;2.42;;;;;;;17.69;86.36;100672.03;2053712;28;20468;-80
2021/06/05 04:37:36;;;;;;;5.73;2.47;;;;;;;17.77;85.23;100674.28;2055943;28;20031;-81
2021/06/05 04:38:39;;;;;;;3.93;2.30;;;;;;;17.85;85.03;100672.09;2056016;28;20494;-80
2021/06/05 04:39:40;;;;;;;5.68;2.13;;;;;;;18.02;84.40;100681.78;2057486;28;20401;-80
2021/06/05 04:40:41;;;;;;;;;;;;;;;18.15;83.57;100673.19;2057438;28;20110;-80
2021/06/05 04:41:41;;;;;;;5.47;2.17;;;;;;;18.17;82.41;100672.19;2055632;28;19996;-81
2021/06/05 04:42:42;;;;;;;3.43;2.30;;;;;;;18.34;82.43;100671.25;2049967;28;20023;-81
2021/06/05 04:43:42;;;;;;;4.10;2.27;;;;;;;18.60;81.70;100673.38;2056302;28;20617;-80
2021/06/05 04:44:42;;;;;;;5.13;2.23;;;;;;;18.69;80.93;100674.63;2057543;28;20027;-81
2021/06/05 04:45:44;;;;;;;2.93;2.00;;;;;;;18.87;80.79;100673.56;2057457;28;20015;-80
2021/06/05 04:46:44;;;;;;;3.13;1.95;;;;;;;19.09;79.31;100678.50;2057392;28;20035;-80
2021/06/05 04:47:45;;;;;;;4.43;2.00;;;;;;;19.27;78.41;100676.56;2057462;28;20061;-80
2021/06/05 04:48:46;;;;;;;6.75;2.13;;;;;;;19.06;78.93;100675.19;2057545;28;20042;-81
2021/06/05 04:49:46;;;;;;;3.05;2.00;;;;;;;19.16;78.44;100676.34;2057439;28;20038;-80
2021/06/05 04:50:47;;;;;;;3.53;1.93;;;;;;;19.53;76.39;100676.81;2057311;28;20049;-80
2021/06/05 04:51:47;;;;;;;4.63;1.83;;;;;;;19.70;75.79;100675.75;2056686;28;20894;-80
2021/06/05 04:52:48;;;;;;;4.07;2.00;;;;;;;19.72;75.45;100673.03;2056835;28;20065;-80
2021/06/05 04:53:49;;;;;;;2.87;1.90;;;;;;;19.81;74.82;100676.91;2057456;28;20274;-80